Time;durP1;ratioP1;P1;durP2;ratioP2;P2;SDS_P1;SDS_P2;PMS_P1;PMS_P2;Temp;Humidity;BMP_temperature;BMP_pressure;BME280_temperature;BME280_humidity;BME280_pressure;Samples;Min_cycle;Max_cycle;Signal;HPM_P1;HPM_P2
2023/12/13 00:02:18;;;;;;;;;;;;;;;3.16;99.94;99842.82;105102;1289;71196;-60
2023/12/13 00:05:05;;;;;;;;;;;;;;;3.13;99.96;99839.06;105098;1286;63185;-59
2023/12/13 00:07:51;;;;;;;;;;;;;;;3.11;99.97;99838.23;106403;1286;59133;-60
2023/12/13 00:10:37;;;;;;;;;;;;;;;3.09;99.94;99837.73;106405;1285;73345;-60
2023/12/13 00:13:23;;;;;;;;;;;;;;;3.06;99.94;99833.30;106464;1286;67521;-60
2023/12/13 00:16:09;;;;;;;;;;;;;;;3.05;99.96;99828.86;106407;1285;71402;-60
2023/12/13 00:18:55;;;;;;;;;;;;;;;3.06;99.98;99825.13;106483;1285;59263;-60
2023/12/13 00:21:40;;;;;;;;;;;;;;;3.06;99.97;99820.86;106497;1286;59205;-60
2023/12/13 00:24:26;;;;;;;;;;;;;;;3.07;99.94;99819.51;106363;1287;73279;-60
2023/12/13 00:27:12;;;;;;;;;;;;;;;3.09;99.90;99821.73;106423;1286;68397;-60
2023/12/13 00:29:58;;;;;;;;;;;;;;;3.09;99.93;99821.89;106435;1286;72827;-60
2023/12/13 00:32:44;;;;;;;;;;;;;;;3.10;99.91;99817.13;106390;1286;58896;-60
2023/12/13 00:35:30;;;;;;;;;;;;;;;3.11;99.91;99810.64;106429;1286;58971;-60
2023/12/13 00:38:16;;;;;;;;;;;;;;;3.13;99.97;99807.56;106419;1285;73323;-60
2023/12/13 00:41:02;;;;;;;;;;;;;;;3.14;99.99;99808.58;106428;1287;68853;-60
2023/12/13 00:43:48;;;;;;;;;;;;;;;3.17;99.94;99808.92;106445;1286;70412;-60
2023/12/13 00:46:34;;;;;;;;;;;;;;;3.20;99.99;99810.46;106442;1286;58869;-60
2023/12/13 00:49:20;;;;;;;;;;;;;;;3.22;100.00;99810.46;106445;1286;59455;-60
2023/12/13 00:52:06;;;;;;;;;;;;;;;3.24;100.00;99806.89;106508;1286;73355;-60
2023/12/13 00:54:52;;;;;;;;;;;;;;;3.26;100.00;99806.04;106417;1287;67432;-60
2023/12/13 00:57:38;;;;;;;;;;;;;;;3.28;100.00;99802.98;106484;1285;71156;-60
2023/12/13 01:00:24;;;;;;;;;;;;;;;3.32;100.00;99802.64;106440;1285;58893;-60
2023/12/13 01:03:10;;;;;;;;;;;;;;;3.35;100.00;99801.11;106424;1286;58732;-59
2023/12/13 01:05:56;;;;;;;;;;;;;;;3.37;100.00;99800.77;106455;1286;73421;-60
2023/12/13 01:08:41;;;;;;;;;;;;;;;3.40;100.00;99799.41;106435;1286;67334;-60
2023/12/13 01:11:27;;;;;;;;;;;;;;;3.42;100.00;99803.50;106384;1286;71540;-59
2023/12/13 01:14:13;;;;;;;;;;;;;;;3.43;100.00;99795.66;106428;1286;59069;-60
2023/12/13 01:16:59;;;;;;;;;;;;;;;3.46;100.00;99796.17;106390;1286;59991;-61
2023/12/13 01:19:45;;;;;;;;;;;;;;;3.47;100.00;99790.55;106455;1285;74110;-60
2023/12/13 01:22:31;;;;;;;;;;;;;;;3.48;100.00;99789.52;106457;1286;68546;-60
2023/12/13 01:25:17;;;;;;;;;;;;;;;3.49;100.00;99786.63;106369;1286;71416;-60
2023/12/13 01:28:03;;;;;;;;;;;;;;;3.49;99.98;99786.45;106454;1286;59037;-60
2023/12/13 01:30:49;;;;;;;;;;;;;;;3.49;99.98;99784.75;106457;1286;59179;-60
2023/12/13 01:33:35;;;;;;;;;;;;;;;3.48;100.00;99782.54;106369;1287;75193;-60
2023/12/13 01:36:21;;;;;;;;;;;;;;;3.47;100.00;99780.66;106312;1286;251235;-60
2023/12/13 01:39:07;;;;;;;;;;;;;;;3.48;100.00;99782.54;106443;1286;71427;-60
2023/12/13 01:41:53;;;;;;;;;;;;;;;3.48;100.00;99782.88;106442;1287;58987;-60
2023/12/13 01:44:39;;;;;;;;;;;;;;;3.48;100.00;99785.77;106406;1287;59023;-60
2023/12/13 01:47:25;;;;;;;;;;;;;;;3.49;100.00;99784.75;106396;1286;73343;-60
2023/12/13 01:50:11;;;;;;;;;;;;;;;3.50;100.00;99779.98;106378;1286;67448;-60
2023/12/13 01:52:57;;;;;;;;;;;;;;;3.50;99.98;99779.46;106427;1285;71104;-59
2023/12/13 01:55:43;;;;;;;;;;;;;;;3.51;99.99;99780.66;106397;1286;58729;-60
2023/12/13 01:58:29;;;;;;;;;;;;;;;3.51;100.00;99775.38;106397;1287;58771;-60
2023/12/13 02:01:15;;;;;;;;;;;;;;;3.52;99.99;99776.05;106427;1285;74532;-61
2023/12/13 02:04:02;;;;;;;;;;;;;;;3.52;100.00;99774.52;106445;1286;67492;-60
2023/12/13 02:06:47;;;;;;;;;;;;;;;3.53;99.99;99769.92;106398;1287;71310;-62
2023/12/13 02:09:33;;;;;;;;;;;;;;;3.53;100.00;99768.39;106456;1286;59209;-60
2023/12/13 02:12:19;;;;;;;;;;;;;;;3.53;99.99;99764.80;106390;1286;58867;-59
2023/12/13 02:15:06;;;;;;;;;;;;;;;3.50;99.99;99760.38;106418;1286;73982;-60
2023/12/13 02:17:52;;;;;;;;;;;;;;;3.47;99.99;99758.17;106367;1286;67439;-60
2023/12/13 02:21:03;;;;;;;;;;;;;;;3.45;99.99;99754.60;51072;1290;20063670;-60
2023/12/13 02:23:51;;;;;;;;;;;;;;;3.43;100.00;99752.21;106399;1286;60155;-60
2023/12/13 02:26:40;;;;;;;;;;;;;;;3.45;100.00;99747.61;106443;1286;71095;-60
2023/12/13 02:29:26;;;;;;;;;;;;;;;3.46;100.00;99747.44;106462;1286;59171;-59
2023/12/13 02:32:12;;;;;;;;;;;;;;;3.45;100.00;99742.33;106424;1286;59089;-60
2023/12/13 02:34:58;;;;;;;;;;;;;;;3.45;100.00;99739.44;106437;1286;74058;-60
2023/12/13 02:37:49;;;;;;;;;;;;;;;3.44;100.00;99735.35;106415;1286;68426;-60
2023/12/13 02:40:35;;;;;;;;;;;;;;;3.41;100.00;99731.95;106451;1286;71292;-60
2023/12/13 02:43:20;;;;;;;;;;;;;;;3.42;100.00;99735.35;106268;1286;59459;-60
2023/12/13 02:46:06;;;;;;;;;;;;;;;3.41;100.00;99733.30;106461;1286;59455;-59
2023/12/13 02:48:52;;;;;;;;;;;;;;;3.41;100.00;99730.92;106442;1286;73370;-60
2023/12/13 02:51:38;;;;;;;;;;;;;;;3.42;99.99;99728.54;106415;1286;67381;-60
2023/12/13 02:54:24;;;;;;;;;;;;;;;3.43;100.00;99725.81;106425;1286;72516;-60
2023/12/13 02:57:10;;;;;;;;;;;;;;;3.45;100.00;99718.98;106432;1286;59239;-60
2023/12/13 02:59:56;;;;;;;;;;;;;;;3.46;100.00;99723.25;106442;1286;60144;-60
2023/12/13 03:02:42;;;;;;;;;;;;;;;3.46;100.00;99716.61;106446;1286;72355;-60
2023/12/13 03:05:28;;;;;;;;;;;;;;;3.45;100.00;99715.41;106445;1285;68772;-59
2023/12/13 03:08:14;;;;;;;;;;;;;;;3.48;100.00;99712.68;106536;1286;71150;-60
2023/12/13 03:11:00;;;;;;;;;;;;;;;3.48;100.00;99714.90;106440;1286;58869;-62
2023/12/13 03:13:46;;;;;;;;;;;;;;;3.48;100.00;99716.09;106434;1286;59836;-60
2023/12/13 03:16:32;;;;;;;;;;;;;;;3.48;100.00;99717.97;106521;1285;73830;-60
2023/12/13 03:19:18;;;;;;;;;;;;;;;3.51;100.00;99718.13;106456;1286;67461;-60
2023/12/13 03:22:04;;;;;;;;;;;;;;;3.51;100.00;99715.74;106405;1286;71056;-60
2023/12/13 03:24:56;;;;;;;;;;;;;;;3.52;100.00;99716.77;106441;1287;58913;-60
2023/12/13 03:27:42;;;;;;;;;;;;;;;3.53;100.00;99711.65;106424;1285;58635;-60
2023/12/13 03:30:28;;;;;;;;;;;;;;;3.55;100.00;99709.44;106387;1286;74182;-60
2023/12/13 03:33:14;;;;;;;;;;;;;;;3.55;100.00;99706.20;106438;1286;68446;-60
2023/12/13 03:36:00;;;;;;;;;;;;;;;3.54;100.00;99706.20;106431;1286;72566;-60
2023/12/13 03:38:46;;;;;;;;;;;;;;;3.54;100.00;99704.49;106455;1286;59312;-60
2023/12/13 03:41:32;;;;;;;;;;;;;;;3.52;100.00;99706.88;106511;1285;59059;-60
2023/12/13 03:44:18;;;;;;;;;;;;;;;3.51;100.00;99705.01;106442;1286;74066;-60
2023/12/13 03:47:04;;;;;;;;;;;;;;;3.50;99.99;99701.61;106435;1287;67406;-60
2023/12/13 03:49:50;;;;;;;;;;;;;;;3.50;100.00;99699.73;106460;1287;73198;-59
2023/12/13 03:52:36;;;;;;;;;;;;;;;3.51;100.00;99703.64;106493;1285;59255;-60
2023/12/13 03:55:22;;;;;;;;;;;;;;;3.51;100.00;99700.08;106440;1286;58937;-60
2023/12/13 03:58:07;;;;;;;;;;;;;;;3.50;100.00;99697.34;106474;1286;76194;-60
2023/12/13 04:00:53;;;;;;;;;;;;;;;3.49;100.00;99697.01;106405;1286;68658;-60
2023/12/13 04:03:39;;;;;;;;;;;;;;;3.48;100.00;99690.88;106489;1286;71415;-60
2023/12/13 04:06:25;;;;;;;;;;;;;;;3.47;99.99;99689.69;106482;1286;58907;-60
2023/12/13 04:09:11;;;;;;;;;;;;;;;3.45;100.00;99689.34;105538;1286;59111;-58
2023/12/13 04:11:57;;;;;;;;;;;;;;;3.46;100.00;99693.27;105067;1286;77158;-59
2023/12/13 04:14:45;;;;;;;;;;;;;;;3.47;100.00;99689.18;105070;1286;69955;-59
2023/12/13 04:17:31;;;;;;;;;;;;;;;3.47;100.00;99691.90;104994;1290;73452;-58
2023/12/13 04:20:17;;;;;;;;;;;;;;;3.46;100.00;99698.38;105081;1286;61104;-59
2023/12/13 04:23:03;;;;;;;;;;;;;;;3.44;100.00;99705.53;105141;1285;61389;-59
2023/12/13 04:25:49;;;;;;;;;;;;;;;3.44;100.00;99698.55;98760;1288;5002828;-60
2023/12/13 04:28:35;;;;;;;;;;;;;;;3.43;100.00;99696.50;105637;1286;69032;-59
2023/12/13 04:31:22;;;;;;;;;;;;;;;3.42;100.00;99699.58;105104;1286;72293;-58
2023/12/13 04:34:08;;;;;;;;;;;;;;;3.41;100.00;99698.73;105097;1287;61160;-59
2023/12/13 04:36:54;;;;;;;;;;;;;;;3.41;100.00;99696.34;105106;1289;61054;-59
2023/12/13 04:39:40;;;;;;;;;;;;;;;3.40;100.00;99695.84;105058;1290;73238;-58
2023/12/13 04:42:26;;;;;;;;;;;;;;;3.39;100.00;99686.64;105077;1287;67164;-58
2023/12/13 04:45:13;;;;;;;;;;;;;;;3.40;100.00;99684.42;105095;1287;73584;-59
2023/12/13 04:47:59;;;;;;;;;;;;;;;3.40;100.00;99676.08;105031;1286;60055;-58
2023/12/13 04:50:45;;;;;;;;;;;;;;;3.39;100.00;99673.69;105011;1287;61194;-58
2023/12/13 04:53:32;;;;;;;;;;;;;;;3.38;100.00;99665.85;105057;1286;75335;-59
2023/12/13 04:56:18;;;;;;;;;;;;;;;3.38;100.00;99664.49;105071;1286;67302;-58
2023/12/13 04:59:04;;;;;;;;;;;;;;;3.36;100.00;99659.39;105075;1286;70502;-59
2023/12/13 05:01:51;;;;;;;;;;;;;;;3.35;100.00;99650.19;105061;1286;61137;-59
2023/12/13 05:04:37;;;;;;;;;;;;;;;3.32;100.00;99646.28;105101;1286;59352;-58
2023/12/13 05:07:23;;;;;;;;;;;;;;;3.30;100.00;99639.30;105054;1286;73752;-58
2023/12/13 05:10:09;;;;;;;;;;;;;;;3.30;100.00;99631.63;105118;1286;67190;-59
2023/12/13 05:12:55;;;;;;;;;;;;;;;3.30;100.00;99630.95;105095;1290;75547;-58
2023/12/13 05:15:42;;;;;;;;;;;;;;;3.28;100.00;99626.52;105004;1286;61227;-59
2023/12/13 05:18:28;;;;;;;;;;;;;;;3.28;100.00;99627.38;105063;1286;61480;-59
2023/12/13 05:21:15;;;;;;;;;;;;;;;3.27;100.00;99614.60;105142;1287;74038;-59
2023/12/13 05:24:01;;;;;;;;;;;;;;;3.25;100.00;99609.51;105078;1285;67282;-59
2023/12/13 05:26:47;;;;;;;;;;;;;;;3.23;100.00;99609.51;105111;1286;73968;-59
2023/12/13 05:29:34;;;;;;;;;;;;;;;3.22;100.00;99615.30;105036;1286;61262;-59
2023/12/13 05:32:20;;;;;;;;;;;;;;;3.22;100.00;99620.41;105087;1286;61173;-58
2023/12/13 05:35:07;;;;;;;;;;;;;;;3.19;100.00;99615.64;104967;1286;74345;-59
2023/12/13 05:37:53;;;;;;;;;;;;;;;3.17;100.00;99610.89;105122;1286;67258;-59
2023/12/13 05:40:39;;;;;;;;;;;;;;;3.15;100.00;99603.40;105020;1288;72181;-59
2023/12/13 05:43:26;;;;;;;;;;;;;;;3.14;100.00;99600.52;105047;1286;61183;-59
2023/12/13 05:46:12;;;;;;;;;;;;;;;3.13;100.00;99598.12;105047;1286;61727;-59
2023/12/13 05:48:58;;;;;;;;;;;;;;;3.13;100.00;99603.91;105033;1287;73124;-59
2023/12/13 05:51:44;;;;;;;;;;;;;;;3.13;100.00;99603.57;105010;1288;67208;-59
2023/12/13 05:54:31;;;;;;;;;;;;;;;3.14;100.00;99596.59;105090;1286;72031;-58
2023/12/13 05:57:17;;;;;;;;;;;;;;;3.15;100.00;99601.70;105070;1286;61261;-59
2023/12/13 06:00:06;;;;;;;;;;;;;;;3.14;100.00;99601.86;105001;1288;60547;-58
2023/12/13 06:02:52;;;;;;;;;;;;;;;3.14;100.00;99608.68;106426;1286;74406;-59
2023/12/13 06:05:38;;;;;;;;;;;;;;;3.16;100.00;99618.05;105523;1286;67371;-58
2023/12/13 06:08:24;;;;;;;;;;;;;;;3.18;100.00;99622.11;105047;1287;71246;-59
2023/12/13 06:11:11;;;;;;;;;;;;;;;3.19;100.00;99622.29;105056;1286;61190;-58
2023/12/13 06:13:58;;;;;;;;;;;;;;;3.21;100.00;99625.35;105087;1286;61284;-57
2023/12/13 06:16:44;;;;;;;;;;;;;;;3.22;100.00;99621.09;105070;1287;73153;-59
2023/12/13 06:19:32;;;;;;;;;;;;;;;3.23;100.00;99623.65;105058;1286;66887;-59
2023/12/13 06:22:18;;;;;;;;;;;;;;;3.22;100.00;99630.46;105011;1290;71524;-58
2023/12/13 06:25:05;;;;;;;;;;;;;;;3.22;100.00;99631.64;105000;1287;61060;-61
2023/12/13 06:27:51;;;;;;;;;;;;;;;3.22;100.00;99630.12;106426;1286;58899;-60
2023/12/13 06:30:37;;;;;;;;;;;;;;;3.22;100.00;99623.64;106244;1286;73165;-59
2023/12/13 06:33:23;;;;;;;;;;;;;;;3.24;100.00;99625.01;106373;1286;68139;-59
2023/12/13 06:36:09;;;;;;;;;;;;;;;3.26;100.00;99619.89;106344;1286;71286;-59
2023/12/13 06:38:55;;;;;;;;;;;;;;;3.27;100.00;99616.65;106369;1286;59235;-61
2023/12/13 06:41:41;;;;;;;;;;;;;;;3.27;100.00;99616.48;106369;1286;59893;-59
2023/12/13 06:44:27;;;;;;;;;;;;;;;3.27;100.00;99613.58;106346;1286;74721;-59
2023/12/13 06:47:13;;;;;;;;;;;;;;;3.30;100.00;99613.23;106296;1287;68559;-59
2023/12/13 06:49:59;;;;;;;;;;;;;;;3.32;100.00;99608.64;106363;1286;71966;-58
2023/12/13 06:52:47;;;;;;;;;;;;;;;3.32;100.00;99605.06;106367;1286;59408;-59
2023/12/13 06:55:33;;;;;;;;;;;;;;;3.33;100.00;99600.63;106502;1285;58839;-59
2023/12/13 06:58:19;;;;;;;;;;;;;;;3.36;100.00;99599.42;106343;1286;73268;-59
2023/12/13 07:01:05;;;;;;;;;;;;;;;3.37;100.00;99595.00;106377;1287;68394;-59
2023/12/13 07:03:51;;;;;;;;;;;;;;;3.38;100.00;99590.73;106198;1287;71404;-59
2023/12/13 07:06:37;;;;;;;;;;;;;;;3.40;100.00;99592.60;106356;1286;58367;-59
2023/12/13 07:09:23;;;;;;;;;;;;;;;3.41;100.00;99582.71;106300;1287;58986;-60
2023/12/13 07:12:09;;;;;;;;;;;;;;;3.41;100.00;99586.98;106278;1287;75054;-60
2023/12/13 07:14:58;;;;;;;;;;;;;;;3.41;100.00;99590.38;106314;1287;67630;-58
2023/12/13 07:17:44;;;;;;;;;;;;;;;3.41;100.00;99595.33;106362;1287;71240;-60
2023/12/13 07:20:34;;;;;;;;;;;;;;;3.42;100.00;99592.25;106357;1286;59245;-60
2023/12/13 07:23:20;;;;;;;;;;;;;;;3.43;100.00;99587.14;106390;1287;58272;-59
2023/12/13 07:26:06;;;;;;;;;;;;;;;3.46;100.00;99590.89;106356;1286;74181;-59
2023/12/13 07:28:52;;;;;;;;;;;;;;;3.47;100.00;99587.30;106365;1286;67247;-59
2023/12/13 07:31:41;;;;;;;;;;;;;;;3.49;100.00;99580.80;106355;1288;73043;-59
2023/12/13 07:34:27;;;;;;;;;;;;;;;3.51;100.00;99579.10;106320;1286;59473;-59
2023/12/13 07:37:13;;;;;;;;;;;;;;;3.51;100.00;99577.91;106403;1286;59296;-58
2023/12/13 07:39:59;;;;;;;;;;;;;;;3.52;100.00;99581.98;106357;1288;73353;-59
2023/12/13 07:42:46;;;;;;;;;;;;;;;3.53;100.00;99585.56;106353;1287;68367;-58
2023/12/13 07:45:33;;;;;;;;;;;;;;;3.54;100.00;99585.90;106382;1286;72597;-59
2023/12/13 07:48:20;;;;;;;;;;;;;;;3.55;100.00;99574.83;106355;1288;59457;-59
2023/12/13 07:51:06;;;;;;;;;;;;;;;3.56;100.00;99572.44;106301;1287;59784;-58
2023/12/13 07:53:52;;;;;;;;;;;;;;;3.56;100.00;99572.27;106375;1286;73424;-59
2023/12/13 07:56:41;;;;;;;;;;;;;;;3.57;100.00;99572.27;106369;1287;68548;-59
2023/12/13 07:59:27;;;;;;;;;;;;;;;3.56;100.00;99569.36;106325;1286;70408;-59
2023/12/13 08:02:12;;;;;;;;;;;;;;;3.59;100.00;99571.73;106340;1287;59076;-59
2023/12/13 08:04:58;;;;;;;;;;;;;;;3.61;100.00;99566.27;105327;1287;61214;-58
2023/12/13 08:07:45;;;;;;;;;;;;;;;3.64;100.00;99566.92;105024;1290;73716;-56
2023/12/13 08:10:31;;;;;;;;;;;;;;;3.68;100.00;99567.91;105002;1287;71376;-57
2023/12/13 08:13:17;;;;;;;;;;;;;;;3.71;100.00;99576.26;105025;1287;73984;-58
2023/12/13 08:16:05;;;;;;;;;;;;;;;3.73;100.00;99576.41;104975;1286;61077;-61
2023/12/13 08:18:53;;;;;;;;;;;;;;;3.75;100.00;99575.89;105025;1288;61240;-61
2023/12/13 08:21:40;;;;;;;;;;;;;;;3.76;100.00;99574.70;105190;1286;78947;-61
2023/12/13 08:24:27;;;;;;;;;;;;;;;3.78;100.00;99578.95;104991;1288;67418;-59
2023/12/13 08:27:13;;;;;;;;;;;;;;;3.79;100.00;99581.66;105023;1287;75117;-59
2023/12/13 08:29:59;;;;;;;;;;;;;;;3.81;100.00;99585.41;104979;1288;61294;-60
2023/12/13 08:32:45;;;;;;;;;;;;;;;3.82;100.00;99588.64;105086;1287;59721;-60
2023/12/13 08:35:32;;;;;;;;;;;;;;;3.84;100.00;99589.65;105069;1290;74562;-59
2023/12/13 08:38:18;;;;;;;;;;;;;;;3.83;100.00;99587.61;105093;1288;67162;-58
2023/12/13 08:41:06;;;;;;;;;;;;;;;3.84;100.00;99584.20;105007;1286;73401;-57
2023/12/13 08:43:52;;;;;;;;;;;;;;;3.86;100.00;99584.02;105065;1288;60870;-59
2023/12/13 08:46:38;;;;;;;;;;;;;;;3.87;100.00;99582.14;105094;1287;61124;-59
2023/12/13 08:49:24;;;;;;;;;;;;;;;3.89;100.00;99576.67;104925;1292;73266;-59
2023/12/13 08:52:11;;;;;;;;;;;;;;;3.93;100.00;99576.83;105083;1288;67276;-59
2023/12/13 08:54:57;;;;;;;;;;;;;;;3.95;100.00;99567.95;105003;1287;71167;-59
2023/12/13 08:57:43;;;;;;;;;;;;;;;3.97;100.00;99564.35;105048;1288;61290;-58
2023/12/13 09:00:30;;;;;;;;;;;;;;;4.01;100.00;99566.03;105037;1286;61304;-59
2023/12/13 09:03:19;;;;;;;;;;;;;;;4.04;100.00;99569.42;105056;1286;75150;-59
2023/12/13 09:06:06;;;;;;;;;;;;;;;4.07;100.00;99563.27;105078;1286;68245;-60
2023/12/13 09:08:52;;;;;;;;;;;;;;;4.09;100.00;99561.03;106430;1288;71464;-60
2023/12/13 09:11:38;;;;;;;;;;;;;;;4.11;100.00;99555.05;106320;1288;58379;-59
2023/12/13 09:14:25;;;;;;;;;;;;;;;4.15;100.00;99551.95;106409;1286;58996;-60
2023/12/13 09:17:11;;;;;;;;;;;;;;;4.19;100.00;99552.23;106443;1286;74124;-59
2023/12/13 09:19:57;;;;;;;;;;;;;;;4.25;100.00;99550.14;106426;1286;67278;-59
2023/12/13 09:22:43;;;;;;;;;;;;;;;4.32;100.00;99548.73;106345;1288;73082;-60
2023/12/13 09:25:29;;;;;;;;;;;;;;;4.39;100.00;99550.05;106444;1286;58860;-60
2023/12/13 09:28:16;;;;;;;;;;;;;;;4.45;100.00;99557.16;106409;1287;59755;-59
2023/12/13 09:31:03;;;;;;;;;;;;;;;4.50;100.00;99555.76;105088;1288;74679;-59
2023/12/13 09:33:50;;;;;;;;;;;;;;;4.56;100.00;99554.67;105017;1287;67275;-59
2023/12/13 09:36:36;;;;;;;;;;;;;;;4.65;100.00;99551.86;47339;1288;20072763;-59
2023/12/13 09:39:22;;;;;;;;;;;;;;;4.71;100.00;99552.98;106112;1290;58958;-60
2023/12/13 09:42:08;;;;;;;;;;;;;;;4.78;100.00;99551.38;106098;1290;59725;-57
2023/12/13 09:44:55;;;;;;;;;;;;;;;4.85;100.00;99554.21;106089;1289;73067;-57
2023/12/13 09:47:41;;;;;;;;;;;;;;;4.95;100.00;99551.02;106071;1293;68623;-58
2023/12/13 09:50:27;;;;;;;;;;;;;;;5.05;100.00;99551.27;106060;1288;71978;-57
2023/12/13 09:53:14;;;;;;;;;;;;;;;5.13;100.00;99553.75;104705;1290;61288;-58
2023/12/13 09:56:02;;;;;;;;;;;;;;;5.18;100.00;99554.71;104668;1291;61393;-59
2023/12/13 09:58:50;;;;;;;;;;;;;;;5.22;100.00;99552.42;104728;1291;73191;-58
2023/12/13 10:01:36;;;;;;;;;;;;;;;5.25;100.00;99551.88;105094;1290;67385;-57
2023/12/13 10:04:26;;;;;;;;;;;;;;;5.26;100.00;99551.17;104730;1291;72048;-58
2023/12/13 10:07:12;;;;;;;;;;;;;;;5.25;100.00;99553.41;104787;1289;61202;-58
2023/12/13 10:09:58;;;;;;;;;;;;;;;5.22;100.00;99546.78;104801;1289;61133;-59
2023/12/13 10:12:49;;;;;;;;;;;;;;;5.23;100.00;99548.48;104755;1289;73139;-58
2023/12/13 10:15:36;;;;;;;;;;;;;;;5.23;100.00;99542.84;104835;1288;67214;-59
2023/12/13 10:18:22;;;;;;;;;;;;;;;5.21;100.00;99544.41;105053;1286;71306;-59
2023/12/13 10:21:09;;;;;;;;;;;;;;;5.19;100.00;99542.07;105050;1288;61188;-57
2023/12/13 10:23:55;;;;;;;;;;;;;;;5.19;100.00;99540.18;104888;1288;61162;-59
2023/12/13 10:26:41;;;;;;;;;;;;;;;5.19;100.00;99532.50;104979;1288;73552;-59
2023/12/13 10:29:29;;;;;;;;;;;;;;;5.16;100.00;99528.09;104969;1290;67273;-59
2023/12/13 10:32:18;;;;;;;;;;;;;;;5.16;100.00;99524.16;104915;1287;71133;-59
2023/12/13 10:35:05;;;;;;;;;;;;;;;5.18;100.00;99523.28;105014;1286;61380;-60
2023/12/13 10:37:51;;;;;;;;;;;;;;;5.18;100.00;99526.19;104984;1290;62612;-58
2023/12/13 10:40:39;;;;;;;;;;;;;;;5.16;100.00;99525.70;104991;1288;73250;-58
2023/12/13 10:43:25;;;;;;;;;;;;;;;5.13;100.00;99529.33;105601;1287;68080;-59
2023/12/13 10:46:16;;;;;;;;;;;;;;;5.09;100.00;99528.69;104977;1287;74159;-59
2023/12/13 10:49:05;;;;;;;;;;;;;;;5.06;100.00;99531.63;104914;1290;62756;-59
2023/12/13 10:51:52;;;;;;;;;;;;;;;5.03;100.00;99531.14;104970;1288;61350;-58
2023/12/13 10:54:39;;;;;;;;;;;;;;;5.00;100.00;99528.96;106367;1286;74355;-60
2023/12/13 10:57:25;;;;;;;;;;;;;;;4.97;100.00;99527.79;106315;1288;67914;-60
2023/12/13 11:00:13;;;;;;;;;;;;;;;4.94;100.00;99519.95;106343;1286;71129;-60
2023/12/13 11:03:02;;;;;;;;;;;;;;;4.92;100.00;99516.23;106281;1287;59122;-60
2023/12/13 11:05:48;;;;;;;;;;;;;;;4.91;100.00;99520.16;106331;1288;60414;-60
2023/12/13 11:08:40;;;;;;;;;;;;;;;4.90;100.00;99520.01;106125;1288;74950;-57
2023/12/13 11:11:27;;;;;;;;;;;;;;;4.90;100.00;99520.86;104972;1288;66670;-59
2023/12/13 11:14:15;;;;;;;;;;;;;;;4.88;100.00;99517.98;104910;1286;71321;-59
2023/12/13 11:17:03;;;;;;;;;;;;;;;4.84;100.00;99514.95;104933;1286;61184;-59
2023/12/13 11:19:50;;;;;;;;;;;;;;;4.81;100.00;99513.79;105000;1287;60069;-58
2023/12/13 11:22:36;;;;;;;;;;;;;;;4.77;100.00;99513.48;104945;1287;73241;-59
2023/12/13 11:25:33;;;;;;;;;;;;;;;4.74;100.00;99512.83;104961;1287;69172;-59
2023/12/13 11:28:21;;;;;;;;;;;;;;;4.73;100.00;99512.50;104971;1288;71153;-59
2023/12/13 11:31:11;;;;;;;;;;;;;;;4.72;100.00;99511.31;104938;1290;61187;-59
2023/12/13 11:33:57;;;;;;;;;;;;;;;4.71;100.00;99510.13;104989;1287;61980;-59
2023/12/13 11:36:44;;;;;;;;;;;;;;;4.72;100.00;99508.59;104963;1290;72234;-58
2023/12/13 11:39:31;;;;;;;;;;;;;;;4.72;100.00;99507.40;104973;1287;70584;-58
2023/12/13 11:42:17;;;;;;;;;;;;;;;4.71;100.00;99509.45;104965;1286;70999;-58
2023/12/13 11:45:05;;;;;;;;;;;;;;;4.70;100.00;99507.24;104955;1287;61347;-58
2023/12/13 11:47:51;;;;;;;;;;;;;;;4.70;100.00;99507.59;105794;1287;59055;-59
2023/12/13 11:50:37;;;;;;;;;;;;;;;4.68;100.00;99508.80;104926;1287;73526;-57
2023/12/13 11:53:23;;;;;;;;;;;;;;;4.66;100.00;99511.23;104926;1287;67281;-57
2023/12/13 11:56:13;;;;;;;;;;;;;;;4.63;100.00;99510.58;104930;1290;71608;-58
2023/12/13 11:58:59;;;;;;;;;;;;;;;4.62;100.00;99511.95;104963;1287;61296;-59
2023/12/13 12:01:46;;;;;;;;;;;;;;;4.62;100.00;99512.48;104953;1286;59363;-59
2023/12/13 12:04:32;;;;;;;;;;;;;;;4.61;100.00;99516.57;106068;1286;73143;-58
2023/12/13 12:07:19;;;;;;;;;;;;;;;4.60;100.00;99514.20;104897;1286;67184;-58
2023/12/13 12:10:07;;;;;;;;;;;;;;;4.62;100.00;99513.15;104966;1286;70265;-58
2023/12/13 12:12:53;;;;;;;;;;;;;;;4.63;100.00;99513.48;106308;1286;59011;-60
2023/12/13 12:15:41;;;;;;;;;;;;;;;4.63;100.00;99509.71;106317;1287;59886;-59
2023/12/13 12:18:28;;;;;;;;;;;;;;;4.66;100.00;99508.85;106330;1290;73278;-59
2023/12/13 12:21:14;;;;;;;;;;;;;;;4.69;100.00;99507.09;106343;1286;69146;-60
2023/12/13 12:24:00;;;;;;;;;;;;;;;4.69;100.00;99504.02;106315;1287;72557;-60
2023/12/13 12:26:47;;;;;;;;;;;;;;;4.72;100.00;99502.78;106356;1287;59403;-60
2023/12/13 12:29:33;;;;;;;;;;;;;;;4.75;100.00;99503.61;106324;1288;59266;-60
2023/12/13 12:32:19;;;;;;;;;;;;;;;4.76;100.00;99501.55;106328;1286;73444;-59
2023/12/13 12:35:06;;;;;;;;;;;;;;;4.78;100.00;99500.52;106337;1287;67342;-58
2023/12/13 12:37:52;;;;;;;;;;;;;;;4.79;100.00;99500.84;106338;1286;72618;-59
2023/12/13 12:40:38;;;;;;;;;;;;;;;4.80;100.00;99499.29;106364;1288;58988;-59
2023/12/13 12:43:24;;;;;;;;;;;;;;;4.78;100.00;99498.63;106311;1287;60004;-59
2023/12/13 12:46:11;;;;;;;;;;;;;;;4.75;100.00;99493.52;106335;1287;75024;-59
2023/12/13 12:48:57;;;;;;;;;;;;;;;4.72;100.00;99493.05;106299;1287;69173;-58
2023/12/13 12:51:43;;;;;;;;;;;;;;;4.70;100.00;99488.45;106324;1286;71334;-59
2023/12/13 12:54:29;;;;;;;;;;;;;;;4.70;100.00;99486.08;106278;1286;59216;-60
2023/12/13 12:57:17;;;;;;;;;;;;;;;4.68;100.00;99489.67;106318;1288;60749;-59
2023/12/13 13:00:04;;;;;;;;;;;;;;;4.64;100.00;99489.57;105587;1291;74403;-59
2023/12/13 13:02:49;;;;;;;;;;;;;;;4.62;100.00;99491.98;106308;1288;67215;-59
2023/12/13 13:05:35;;;;;;;;;;;;;;;4.59;100.00;99491.16;105374;1286;73014;-58
2023/12/13 13:08:21;;;;;;;;;;;;;;;4.59;100.00;99488.42;105025;1288;61254;-59
2023/12/13 13:11:08;;;;;;;;;;;;;;;4.57;100.00;99489.48;104948;1287;63613;-59
2023/12/13 13:13:54;;;;;;;;;;;;;;;4.52;100.00;99489.36;104913;1291;73289;-58
2023/12/13 13:16:40;;;;;;;;;;;;;;;4.49;100.00;99496.02;104922;1286;69052;-58
2023/12/13 13:19:26;;;;;;;;;;;;;;;4.48;100.00;99497.75;106286;1288;71204;-58
2023/12/13 13:22:12;;;;;;;;;;;;;;;4.45;100.00;99499.48;105846;1289;61379;-59
2023/12/13 13:25:00;;;;;;;;;;;;;;;4.41;100.00;99493.89;104928;1286;61165;-59
2023/12/13 13:27:47;;;;;;;;;;;;;;;4.39;100.00;99498.01;104971;1290;73200;-59
2023/12/13 13:30:34;;;;;;;;;;;;;;;4.36;100.00;99495.30;104909;1288;66768;-58
2023/12/13 13:33:20;;;;;;;;;;;;;;;4.33;100.00;99501.46;106219;1288;71137;-59
2023/12/13 13:36:06;;;;;;;;;;;;;;;4.33;100.00;99502.14;106257;1286;59192;-59
2023/12/13 13:38:52;;;;;;;;;;;;;;;4.33;100.00;99500.61;106141;1286;60863;-59
2023/12/13 13:41:39;;;;;;;;;;;;;;;4.34;100.00;99511.35;106337;1287;73526;-57
2023/12/13 13:44:25;;;;;;;;;;;;;;;4.35;100.00;99512.02;106308;1286;68386;-58
2023/12/13 13:47:11;;;;;;;;;;;;;;;4.36;100.00;99511.01;106280;1291;72084;-58
2023/12/13 13:49:57;;;;;;;;;;;;;;;4.33;100.00;99513.06;106327;1289;59305;-59
2023/12/13 13:52:43;;;;;;;;;;;;;;;4.33;100.00;99517.50;106313;1286;59117;-59
2023/12/13 13:55:29;;;;;;;;;;;;;;;4.34;100.00;99520.56;106343;1287;73753;-59
2023/12/13 13:58:15;;;;;;;;;;;;;;;4.34;100.00;99521.93;106376;1290;68451;-59
2023/12/13 14:01:01;;;;;;;;;;;;;;;4.32;100.00;99520.08;106401;1286;71488;-60
2023/12/13 14:03:47;;;;;;;;;;;;;;;4.31;100.00;99523.83;106373;1286;59022;-58
2023/12/13 14:06:33;;;;;;;;;;;;;;;4.30;100.00;99523.32;106403;1286;58941;-60
2023/12/13 14:09:19;;;;;;;;;;;;;;;4.29;100.00;99527.95;106385;1288;74451;-59
2023/12/13 14:12:05;;;;;;;;;;;;;;;4.27;100.00;99526.08;106402;1286;67168;-60
2023/12/13 14:14:53;;;;;;;;;;;;;;;4.26;100.00;99527.11;106465;1289;71408;-59
2023/12/13 14:17:39;;;;;;;;;;;;;;;4.25;100.00;99529.34;106356;1286;58854;-59